| time (UTC) | temp F | wind direction | speed knots | gust knots | rain 1hr in | rain 24hr in | rain mn in | humidity % | barometer mb |
| 20260904133035 | 68 | 193 | 0.0 | 0.0 | 0.12 | 1.05 | 0.14 | 97 | 1015.3 |
| 20260904131532 | 68 | 193 | 0.0 | 0.0 | 0.10 | 1.02 | 0.11 | 97 | 1014.4 |
| 20260904130030 | 68 | 193 | 0.0 | 0.9 | 0.07 | 0.99 | 0.08 | 97 | 1014.7 |
| 20260904124529 | 67 | 192 | 0.0 | 0.9 | 0.03 | 0.94 | 0.03 | 97 | 1014.5 |
| 20260904123028 | 67 | 192 | 0.0 | 0.9 | 0.02 | 0.93 | 0.02 | 97 | 1014.2 |
| 20260904121526 | 67 | 194 | 0.0 | 0.9 | 0.01 | 0.92 | 0.01 | 97 | 1014.3 |
| 20260904120026 | 67 | 194 | 0.0 | 0.9 | 0.01 | 0.92 | 0.01 | 97 | 1014.1 |
| 20260904114525 | 67 | 212 | 0.0 | 0.0 | 0.00 | 0.00 | 0.00 | 97 | 1014.4 |
| 20260904113025 | 67 | 211 | 0.0 | 0.9 | 0.00 | 0.91 | 0.00 | 97 | 1014.3 |
| 20260904111523 | 67 | 224 | 0.0 | 1.7 | 0.00 | 0.91 | 0.00 | 97 | 1014.0 |
| 20260904110022 | 67 | 190 | 0.0 | 0.0 | 0.00 | 0.91 | 0.00 | 97 | 1014.0 |
| 20260904104521 | 67 | 190 | 0.0 | 0.9 | 0.00 | 0.91 | 0.00 | 97 | 1013.6 |
| 20260904103022 | 67 | 191 | 0.0 | 1.7 | 0.00 | 0.91 | 0.00 | 97 | 1013.6 |
| 20260904101520 | 67 | 43 | 0.0 | 0.0 | 0.00 | 0.91 | 0.00 | 97 | 1012.9 |
| 20260904100021 | 67 | 48 | 0.0 | 0.9 | 0.00 | 0.91 | 0.00 | 97 | 1012.4 |
| 20260904094533 | 67 | 34 | 0.0 | 1.7 | 0.00 | 0.91 | 0.00 | 97 | 1012.5 |
| 20260904093018 | 67 | 290 | 0.0 | 1.7 | 0.00 | 0.91 | 0.00 | 97 | 1012.9 |
| 20260904091515 | 67 | 320 | 0.0 | 0.9 | 0.00 | 0.91 | 0.00 | 97 | 1013.2 |
| 20260904090030 | 67 | 4 | 0.0 | 1.7 | 0.00 | 0.91 | 0.00 | 97 | 1013.3 |
| 20260904084514 | 67 | 8 | 0.0 | 0.9 | 0.00 | 0.91 | 0.00 | 97 | 1013.4 |
| 20260904083014 | 67 | 41 | 0.0 | 0.9 | 0.00 | 0.91 | 0.00 | 97 | 1013.3 |
| 20260904081511 | 67 | 138 | 0.0 | 0.9 | 0.00 | 0.91 | 0.00 | 97 | 1013.4 |
| 20260904080012 | 67 | 139 | 0.0 | 0.0 | 0.00 | 0.91 | 0.00 | 97 | 1013.3 |
| 20260904074513 | 67 | 139 | 0.0 | 0.0 | 0.00 | 1.30 | 0.00 | 97 | 1013.0 |
| 20260904073011 | 67 | 139 | 0.0 | 0.0 | 0.00 | 1.30 | 0.00 | 97 | 1013.0 |
| 20260904071506 | 67 | 139 | 0.0 | 0.0 | 0.00 | 1.30 | 0.00 | 97 | 1013.3 |
| 20260904070005 | 68 | 138 | 0.0 | 0.0 | 0.00 | 1.30 | 0.00 | 97 | 1013.5 |
| 20260904064503 | 68 | 138 | 0.0 | 0.0 | 0.00 | 1.35 | 0.00 | 97 | 1013.7 |
| 20260904063009 | 67 | 139 | 0.0 | 0.0 | 0.00 | 1.35 | 0.00 | 97 | 1013.9 |
| 20260904061502 | 67 | 138 | 0.0 | 0.0 | 0.00 | 1.35 | 0.00 | 97 | 1013.6 |
| 20260904060001 | 67 | 138 | 0.0 | 0.0 | 0.00 | 1.35 | 0.00 | 97 | 1013.9 |
| 20260904054502 | 67 | 138 | 0.0 | 0.0 | 0.00 | 1.35 | 0.00 | 97 | 1014.0 |
| 20260904053106 | 67 | 139 | 0.0 | 0.0 | 0.00 | 1.35 | 0.00 | 97 | 1014.0 |
| 20260904051559 | 67 | 139 | 0.0 | 0.0 | 0.00 | 1.35 | 0.00 | 97 | 1014.0 |
| 20260904050157 | 67 | 138 | 0.0 | 0.0 | 0.00 | 1.35 | 0.00 | 97 | 1014.1 |
| 20260904044557 | 67 | 138 | 0.0 | 0.0 | 0.00 | 1.35 | 0.00 | 97 | 1014.1 |
| 20260904043101 | 67 | 139 | 0.0 | 0.0 | 0.00 | 1.35 | 0.00 | 97 | 1014.1 |
| 20260904041553 | 67 | 138 | 0.0 | 0.0 | 0.00 | 1.35 | 0.00 | 97 | 1014.0 |
| 20260904040104 | 67 | 138 | 0.0 | 0.0 | 0.00 | 1.35 | 0.00 | 97 | 1013.5 |
| 20260904034551 | 67 | 138 | 0.0 | 0.0 | 0.00 | 2.41 | 1.35 | 97 | 1013.4 |
| 20260904033051 | 67 | 138 | 0.0 | 0.0 | 0.00 | 2.41 | 1.35 | 97 | 1013.4 |
| 20260904031556 | 67 | 139 | 0.0 | 0.0 | 0.00 | 2.41 | 1.35 | 97 | 1013.2 |
| 20260904030049 | 67 | 138 | 0.0 | 0.0 | 0.00 | 2.41 | 1.35 | 96 | 1013.1 |
| 20260904024548 | 67 | 139 | 0.0 | 0.0 | 0.00 | 2.92 | 1.35 | 96 | 1013.2 |
| 20260904023047 | 67 | 139 | 0.0 | 0.0 | 0.00 | 2.92 | 1.35 | 96 | 1013.1 |
| 20260904021546 | 68 | 139 | 0.0 | 0.9 | 0.00 | 2.92 | 1.35 | 96 | 1013.0 |
| 20260904020048 | 68 | 118 | 0.0 | 0.0 | 0.00 | 2.92 | 1.35 | 96 | 1013.0 |
| 20260904014547 | 68 | 119 | 0.0 | 0.0 | 0.00 | 2.92 | 1.35 | 96 | 1012.8 |
| 20260904013047 | 68 | 118 | 0.0 | 0.0 | 0.00 | 2.92 | 1.35 | 96 | 1012.9 |
| 20260904011546 | 69 | 118 | 0.0 | 0.0 | 0.00 | 2.92 | 1.35 | 96 | 1012.8 |
| 20260904010043 | 69 | 118 | 0.0 | 0.9 | 0.00 | 2.92 | 1.35 | 96 | 1012.5 |
| 20260904004543 | 69 | 118 | 0.0 | 0.0 | 0.00 | 2.92 | 1.35 | 96 | 1012.6 |
| 20260904003043 | 69 | 118 | 0.0 | 0.0 | 0.00 | 2.92 | 1.35 | 96 | 1012.4 |
| 20260904001546 | 69 | 118 | 0.0 | 0.9 | 0.00 | 2.92 | 1.35 | 96 | 1012.3 |
| 20260904000050 | 70 | 119 | 0.0 | 0.9 | 0.00 | 2.92 | 1.35 | 96 | 1012.0 |
| 20260903234541 | 70 | 196 | 0.0 | 0.0 | 0.00 | 2.92 | 1.35 | 96 | 1012.0 |
| 20260903233041 | 70 | 194 | 0.0 | 0.9 | 0.00 | 2.92 | 1.35 | 96 | 1012.2 |
| 20260903231542 | 70 | 209 | 0.0 | 1.7 | 0.00 | 2.92 | 1.35 | 96 | 1012.3 |
| 20260903230046 | 70 | 158 | 0.0 | 1.7 | 0.00 | 2.92 | 1.35 | 96 | 1012.2 |
| 20260903224538 | 70 | 122 | 0.0 | 0.9 | 0.00 | 2.92 | 1.35 | 96 | 1011.4 |
| 20260903223038 | 70 | 49 | 0.0 | 2.6 | 0.00 | 2.92 | 1.35 | 96 | 1011.8 |
| 20260903221539 | 70 | 204 | 0.0 | 2.6 | 0.00 | 2.92 | 1.35 | 96 | 1012.6 |
| 20260903220037 | 70 | 226 | 0.0 | 2.6 | 0.00 | 2.92 | 1.35 | 96 | 1013.0 |
| 20260903214542 | 70 | 229 | 0.0 | 2.6 | 0.00 | 2.92 | 1.35 | 96 | 1013.4 |
| 20260903213045 | 70 | 310 | 0.0 | 0.0 | 0.00 | 2.92 | 1.35 | 96 | 1013.1 |
| 20260903211536 | 70 | 310 | 0.0 | 0.9 | 0.02 | 2.92 | 1.35 | 96 | 1013.2 |
| 20260903210041 | 70 | 310 | 0.0 | 0.0 | 0.06 | 2.92 | 1.35 | 96 | 1013.2 |
| 20260903204535 | 69 | 311 | 0.0 | 0.9 | 0.63 | 2.92 | 1.35 | 96 | 1013.0 |
| 20260903203034 | 69 | 310 | 0.0 | 1.7 | 0.63 | 2.92 | 1.35 | 96 | 1012.1 |
| 20260903201536 | 69 | 25 | 0.0 | 3.5 | 0.61 | 2.90 | 1.33 | 95 | 1012.7 |
| 20260903200034 | 70 | 321 | 3.5 | 10.4 | 0.56 | 2.85 | 1.28 | 92 | 1013.5 |
| 20260903194528 | 75 | 159 | 0.0 | 0.0 | 0.00 | 2.29 | 0.72 | 93 | 1010.9 |
| 20260903193026 | 75 | 159 | 0.0 | 0.0 | 0.00 | 2.29 | 0.72 | 92 | 1010.6 |
| 20260903191525 | 77 | 160 | 0.0 | 0.0 | 0.00 | 2.29 | 0.72 | 90 | 1010.6 |
| 20260903190024 | 78 | 159 | 0.0 | 0.0 | 0.00 | 2.29 | 0.72 | 86 | 1011.1 |
| 20260903184524 | 78 | 159 | 0.0 | 0.0 | 0.00 | 2.29 | 0.72 | 84 | 1011.1 |
| 20260903183023 | 78 | 165 | 0.0 | 0.0 | 0.00 | 2.29 | 0.72 | 87 | 1011.5 |
| 20260903181520 | 77 | 211 | 0.0 | 0.9 | 0.00 | 2.29 | 0.72 | 88 | 1011.5 |
| 20260903180020 | 75 | 221 | 0.0 | 2.6 | 0.00 | 2.29 | 0.72 | 94 | 1011.4 |
| 20260903174515 | 74 | 212 | 0.0 | 1.7 | 0.00 | 2.29 | 0.72 | 96 | 1011.4 |
| 20260903173014 | 72 | 155 | 0.0 | 0.9 | 0.00 | 2.29 | 0.72 | 96 | 1011.7 |
| 20260903171513 | 71 | 156 | 0.0 | 0.9 | 0.03 | 2.29 | 0.72 | 96 | 1011.6 |
| 20260903170013 | 70 | 139 | 0.0 | 0.9 | 0.26 | 2.29 | 0.72 | 96 | 1011.8 |
| 20260903164512 | 70 | 145 | 0.0 | 2.6 | 0.26 | 2.29 | 0.72 | 96 | 1012.2 |
| 20260903163012 | 69 | 135 | 0.0 | 1.7 | 0.26 | 2.27 | 0.71 | 96 | 1012.0 |
| 20260903161511 | 69 | 312 | 0.9 | 2.6 | 0.25 | 2.25 | 0.69 | 96 | 1012.2 |
| 20260903160010 | 70 | 325 | 0.0 | 3.5 | 0.02 | 2.02 | 0.46 | 96 | 1013.7 |
| 20260903154509 | 73 | 308 | 1.7 | 8.7 | 0.02 | 2.02 | 0.46 | 96 | 1014.2 |
| 20260903153007 | 75 | 87 | 0.0 | 0.0 | 0.01 | 2.02 | 0.45 | 96 | 1013.3 |
| 20260903151505 | 75 | 87 | 0.0 | 0.0 | 0.00 | 2.00 | 0.44 | 96 | 1012.5 |
| 20260903150008 | 75 | 203 | 0.0 | 0.0 | 0.00 | 2.00 | 0.44 | 96 | 1012.1 |
| 20260903144511 | 75 | 203 | 0.0 | 0.0 | 0.00 | 2.00 | 0.44 | 96 | 1011.9 |
| 20260903143004 | 76 | 203 | 0.0 | 0.0 | 0.00 | 2.00 | 0.44 | 96 | 1012.3 |
| 20260903141502 | 76 | 203 | 0.0 | 0.0 | 0.00 | 2.00 | 0.44 | 96 | 1011.8 |
| 20260903140005 | 75 | 188 | 0.0 | 0.0 | 0.00 | 2.00 | 0.44 | 97 | 1011.8 |
| 20260903134605 | 75 | 188 | 0.0 | 0.0 | 0.00 | 2.00 | 0.44 | 97 | 1011.9 |